Time;durP1;ratioP1;P1;durP2;ratioP2;P2;SDS_P1;SDS_P2;PMS_P1;PMS_P2;Temp;Humidity;BMP_temperature;BMP_pressure;BME280_temperature;BME280_humidity;BME280_pressure;Samples;Min_cycle;Max_cycle;Signal;HPM_P1;HPM_P2
2024/03/05 00:00:11;;;;;;;19.63;10.82;;;;;;;3.80;100.00;68810.03;5068729;28;20040;-47
2024/03/05 00:02:40;;;;;;;19.42;10.70;;;;;;;3.78;100.00;68805.72;5068219;28;20139;-49
2024/03/05 00:05:09;;;;;;;18.80;10.23;;;;;;;3.78;100.00;68810.31;5070155;28;20123;-49
2024/03/05 00:07:37;;;;;;;17.73;9.95;;;;;;;3.77;100.00;68803.97;5070525;28;20067;-47
2024/03/05 00:10:07;;;;;;;21.55;10.65;;;;;;;3.77;100.00;68804.56;5068515;28;20036;-47
2024/03/05 00:12:35;;;;;;;19.15;10.50;;;;;;;3.76;100.00;68805.97;5072168;28;20500;-47
2024/03/05 00:15:06;;;;;;;19.23;10.95;;;;;;;3.76;100.00;68805.97;5071090;28;20048;-48
2024/03/05 00:17:34;;;;;;;19.92;10.50;;;;;;;3.73;100.00;68802.50;5072479;28;20543;-47
2024/03/05 00:20:03;;;;;;;18.60;10.70;;;;;;;3.70;100.00;68797.00;5072044;28;20044;-47
2024/03/05 00:22:31;;;;;;;20.75;11.25;;;;;;;3.68;100.00;68794.09;5070761;28;20056;-48
2024/03/05 00:24:59;;;;;;;19.70;10.45;;;;;;;3.68;100.00;68799.84;5072031;28;20050;-46
2024/03/05 00:27:28;;;;;;;19.73;10.15;;;;;;;3.68;100.00;68799.25;5071342;28;20196;-47
2024/03/05 00:29:56;;;;;;;20.02;11.30;;;;;;;3.67;100.00;68793.53;5067458;28;20059;-47
2024/03/05 00:32:26;;;;;;;19.13;10.30;;;;;;;3.64;100.00;68792.03;5070764;28;20059;-49
2024/03/05 00:34:54;;;;;;;17.55;10.07;;;;;;;3.61;100.00;68791.72;5071861;28;20105;-48
2024/03/05 00:37:22;;;;;;;18.92;10.63;;;;;;;3.60;100.00;68782.25;5071755;28;20544;-46
2024/03/05 00:39:51;;;;;;;17.30;10.00;;;;;;;3.60;100.00;68790.56;5071856;28;20037;-50
2024/03/05 00:42:19;;;;;;;21.40;12.02;;;;;;;3.59;100.00;68786.81;5070872;28;20040;-51
2024/03/05 00:44:47;;;;;;;17.20;10.27;;;;;;;3.60;100.00;68790.56;5072107;28;20537;-50
2024/03/05 00:47:15;;;;;;;20.88;10.48;;;;;;;3.64;100.00;68787.47;5071609;28;20102;-50
2024/03/05 00:49:45;;;;;;;19.92;10.60;;;;;;;3.65;100.00;68793.22;5071136;28;20041;-54
2024/03/05 00:52:13;;;;;;;21.20;11.65;;;;;;;3.64;100.00;68792.63;5070377;28;20052;-51
2024/03/05 00:54:41;;;;;;;19.30;11.13;;;;;;;3.66;100.00;68794.38;5072006;28;20124;-51
2024/03/05 00:57:12;;;;;;;20.98;12.50;;;;;;;3.68;100.00;68797.28;5072107;28;20048;-54
2024/03/05 00:59:41;;;;;;;23.98;12.98;;;;;;;3.78;100.00;68808.28;5072384;28;20049;-50
2024/03/05 01:02:12;;;;;;;25.63;12.73;;;;;;;3.80;100.00;68804.88;5070874;28;20063;-52
2024/03/05 01:04:42;;;;;;;22.50;12.98;;;;;;;3.81;100.00;68806.03;5068476;28;20099;-52
2024/03/05 01:07:13;;;;;;;23.42;12.70;;;;;;;3.83;100.00;68813.50;5069498;28;20052;-51
2024/03/05 01:09:41;;;;;;;23.73;13.07;;;;;;;3.87;100.00;68818.75;5071702;28;20043;-52
2024/03/05 01:12:09;;;;;;;28.95;15.30;;;;;;;3.91;100.00;68819.66;5071945;28;20098;-53
2024/03/05 01:14:37;;;;;;;26.73;14.30;;;;;;;3.95;100.00;68824.84;5069046;28;20041;-54
2024/03/05 01:17:08;;;;;;;24.13;14.25;;;;;;;3.97;100.00;68829.78;5068197;28;20068;-51
2024/03/05 01:19:36;;;;;;;24.00;13.30;;;;;;;3.99;100.00;68834.66;5070883;28;20083;-53
2024/03/05 01:22:05;;;;;;;25.55;14.05;;;;;;;4.03;100.00;68836.16;5067721;28;20080;-49
2024/03/05 01:24:34;;;;;;;22.80;14.45;;;;;;;4.07;100.00;68843.38;5068082;28;20080;-52
2024/03/05 01:27:05;;;;;;;22.80;13.40;;;;;;;4.09;100.00;68840.53;5070487;28;20052;-51
2024/03/05 01:29:34;;;;;;;22.85;13.75;;;;;;;4.11;100.00;68845.44;5071285;28;20127;-51
2024/03/05 01:32:02;;;;;;;24.15;13.35;;;;;;;4.14;100.00;68851.50;5070480;28;20085;-53
2024/03/05 01:34:32;;;;;;;27.25;14.60;;;;;;;4.17;100.00;68852.41;5068250;28;20514;-52
2024/03/05 01:37:01;;;;;;;26.17;14.70;;;;;;;4.22;100.00;68862.81;5069749;28;20044;-52
2024/03/05 01:39:29;;;;;;;27.25;14.68;;;;;;;4.25;100.00;68865.72;5071303;28;20040;-51
2024/03/05 01:42:01;;;;;;;28.88;15.52;;;;;;;4.27;100.00;68863.44;5072608;28;20043;-53
2024/03/05 01:44:29;;;;;;;28.88;16.13;;;;;;;4.30;100.00;68869.50;5073711;28;20052;-52
2024/03/05 01:46:58;;;;;;;27.33;15.55;;;;;;;4.34;100.00;68874.16;5073438;28;20040;-53
2024/03/05 01:49:27;;;;;;;25.23;14.65;;;;;;;4.38;100.00;68875.63;5074666;28;20057;-52
2024/03/05 01:51:57;;;;;;;27.20;15.10;;;;;;;4.39;100.00;68879.38;5074710;28;20124;-51
2024/03/05 01:54:28;;;;;;;26.58;16.63;;;;;;;4.43;100.00;68886.63;5072215;28;20059;-54
2024/03/05 01:57:01;;;;;;;26.80;15.32;;;;;;;4.48;100.00;68884.09;5069685;28;20057;-53
2024/03/05 01:59:31;;;;;;;31.25;16.88;;;;;;;4.50;100.00;68887.00;5071899;28;20045;-50
2024/03/05 02:02:00;;;;;;;30.30;16.38;;;;;;;4.51;100.00;68887.56;5074454;28;20048;-46
2024/03/05 02:04:31;;;;;;;31.50;15.80;;;;;;;4.56;100.00;68891.38;5073427;28;20563;-48
2024/03/05 02:07:02;;;;;;;31.95;17.52;;;;;;;4.60;100.00;68903.19;5073900;28;20072;-50
2024/03/05 02:09:31;;;;;;;33.65;16.85;;;;;;;4.62;100.00;68902.34;5070809;28;20094;-50
2024/03/05 02:12:00;;;;;;;32.15;17.95;;;;;;;4.73;100.00;68910.53;5070321;28;20052;-53
2024/03/05 02:14:32;;;;;;;33.13;18.73;;;;;;;4.73;100.00;68913.13;5070607;28;20044;-48
2024/03/05 02:17:01;;;;;;;33.95;19.35;;;;;;;4.74;100.00;68916.28;5072758;28;20044;-47
2024/03/05 02:19:30;;;;;;;30.88;17.95;;;;;;;4.75;100.00;68914.88;5070936;28;20127;-49
2024/03/05 02:22:03;;;;;;;34.35;19.33;;;;;;;4.78;100.00;68917.78;5069766;28;20044;-50
2024/03/05 02:24:31;;;;;;;34.40;18.23;;;;;;;4.86;100.00;68930.22;5072536;28;20458;-48
2024/03/05 02:27:01;;;;;;;36.42;18.73;;;;;;;4.86;100.00;68930.22;5070030;28;20053;-48
2024/03/05 02:29:30;;;;;;;36.92;19.30;;;;;;;4.89;100.00;68931.13;5070386;28;20143;-47
2024/03/05 02:31:59;;;;;;;35.17;20.13;;;;;;;4.88;100.00;68937.13;5069881;28;20458;-50
2024/03/05 02:34:27;;;;;;;35.80;19.85;;;;;;;4.89;100.00;68931.13;5070870;28;20052;-49
2024/03/05 02:36:57;;;;;;;37.30;20.45;;;;;;;4.96;100.00;68940.69;5073916;28;20052;-50
2024/03/05 02:39:27;;;;;;;36.78;20.75;;;;;;;4.94;100.00;68938.94;5074131;28;20530;-48
2024/03/05 02:41:55;;;;;;;33.97;19.92;;;;;;;4.94;100.00;68938.38;5073694;28;20463;-46
2024/03/05 02:44:25;;;;;;;41.13;21.23;;;;;;;4.96;100.00;68943.25;5069667;28;20044;-49
2024/03/05 02:46:53;;;;;;;33.33;18.90;;;;;;;5.00;100.00;68945.31;5070264;28;20136;-49
2024/03/05 02:49:22;;;;;;;36.15;19.38;;;;;;;4.99;100.00;68944.16;5073634;28;20098;-50
2024/03/05 02:51:51;;;;;;;35.72;19.80;;;;;;;5.00;100.00;68945.91;5073278;28;20083;-55
2024/03/05 02:54:19;;;;;;;36.17;19.83;;;;;;;5.02;100.00;68948.22;5072627;28;20495;-53
2024/03/05 02:56:49;;;;;;;34.17;19.85;;;;;;;5.03;100.00;68944.22;5072310;28;20060;-53
2024/03/05 02:59:17;;;;;;;34.50;19.23;;;;;;;5.06;100.00;68950.28;5069668;28;20139;-54
2024/03/05 03:01:48;;;;;;;35.53;20.73;;;;;;;5.06;100.00;68952.88;5070413;28;20475;-52
2024/03/05 03:04:17;;;;;;;33.63;19.40;;;;;;;5.09;100.00;68955.78;5071137;28;20051;-54
2024/03/05 03:06:45;;;;;;;34.17;19.33;;;;;;;5.10;100.00;68954.38;5073609;28;20106;-54
2024/03/05 03:09:13;;;;;;;32.00;18.83;;;;;;;5.10;100.00;68954.38;5073658;28;20051;-51
2024/03/05 03:11:41;;;;;;;34.65;18.65;;;;;;;5.13;100.00;68959.88;5072321;28;20044;-54
2024/03/05 03:14:12;;;;;;;32.92;18.95;;;;;;;5.14;100.00;68966.78;5067852;28;20060;-54
2024/03/05 03:16:43;;;;;;;32.42;18.33;;;;;;;5.15;100.00;68962.75;5071435;28;20166;-54
2024/03/05 03:19:12;;;;;;;37.47;19.95;;;;;;;5.18;100.00;68963.66;5073074;28;20052;-52
2024/03/05 03:21:40;;;;;;;32.40;19.27;;;;;;;5.18;100.00;68963.66;5070526;28;20047;-55
2024/03/05 03:24:12;;;;;;;35.50;20.02;;;;;;;5.19;100.00;68964.25;5069712;28;20068;-54
2024/03/05 03:26:40;;;;;;;29.30;18.23;;;;;;;5.21;100.00;68969.72;5072202;28;20048;-53
2024/03/05 03:29:11;;;;;;;34.63;19.40;;;;;;;5.23;100.00;68972.03;5067694;28;20050;-54
2024/03/05 03:31:46;;;;;;;33.08;19.75;;;;;;;5.23;100.00;68971.47;5071350;28;20044;-52
2024/03/05 03:34:16;;;;;;;36.08;18.30;;;;;;;5.25;100.00;68971.22;5072866;28;20041;-47
2024/03/05 03:36:45;;;;;;;31.58;18.60;;;;;;;5.25;100.00;68971.22;5072760;28;20127;-50
2024/03/05 03:39:23;;;;;;;32.60;19.10;;;;;;;5.27;100.00;68970.94;5071959;28;20068;-46
2024/03/05 03:41:54;;;;;;;34.47;19.75;;;;;;;5.30;100.00;68979.59;5068637;28;20510;-48
2024/03/05 03:44:23;;;;;;;35.78;19.35;;;;;;;5.30;100.00;68979.03;5068394;28;20056;-46
2024/03/05 03:46:56;;;;;;;35.88;20.55;;;;;;;5.29;100.00;68977.84;5069528;28;20036;-51
2024/03/05 03:49:24;;;;;;;37.47;19.92;;;;;;;5.31;100.00;68983.34;5072513;28;20052;-47
2024/03/05 03:51:53;;;;;;;37.25;20.77;;;;;;;5.33;100.00;68983.09;5069812;28;20048;-47
2024/03/05 03:54:22;;;;;;;34.10;19.77;;;;;;;5.34;100.00;68989.44;5069763;28;20052;-48
2024/03/05 03:56:51;;;;;;;35.22;19.95;;;;;;;5.34;100.00;68983.69;5071074;28;20052;-47
2024/03/05 03:59:20;;;;;;;36.60;20.40;;;;;;;5.35;100.00;68985.41;5072516;28;20508;-48
2024/03/05 04:01:49;;;;;;;37.05;19.38;;;;;;;5.34;100.00;68981.66;5072249;28;20055;-47
2024/03/05 04:04:19;;;;;;;36.30;20.23;;;;;;;5.35;100.00;68984.84;5068482;28;20053;-47
2024/03/05 04:06:50;;;;;;;;;;;;;;;5.39;100.00;68990.06;5069492;28;20098;-48
2024/03/05 04:09:19;;;;;;;35.45;18.77;;;;;;;5.42;100.00;68993.53;5071134;28;19959;-48
2024/03/05 04:11:47;;;;;;;33.30;19.70;;;;;;;5.40;100.00;68990.66;5069238;28;20472;-49
2024/03/05 04:14:15;;;;;;;45.08;21.33;;;;;;;5.40;100.00;68990.66;5068321;28;20511;-47
2024/03/05 04:16:44;;;;;;;39.20;20.33;;;;;;;5.41;100.00;68991.81;5072362;28;20040;-48
2024/03/05 04:19:12;;;;;;;43.20;20.90;;;;;;;5.42;100.00;68995.56;5072244;28;20076;-47
2024/03/05 04:21:46;;;;;;;43.70;21.70;;;;;;;5.43;100.00;68991.56;5068617;28;20090;-47
2024/03/05 04:24:14;;;;;;;42.78;21.20;;;;;;;5.47;100.00;68998.19;5068492;28;20074;-47
2024/03/05 04:26:42;;;;;;;44.47;21.35;;;;;;;5.44;100.00;68995.31;5071434;28;20128;-46
2024/03/05 04:29:16;;;;;;;43.88;21.38;;;;;;;5.45;100.00;68995.88;5071095;28;20052;-47
2024/03/05 04:31:54;;;;;;;39.88;20.45;;;;;;;5.47;100.00;68998.19;5068984;28;20484;-47
2024/03/05 04:34:23;;;;;;;42.85;20.90;;;;;;;5.44;100.00;68990.13;5071210;28;20044;-48
2024/03/05 04:36:55;;;;;;;41.45;21.63;;;;;;;5.44;100.00;68992.72;5069334;28;20032;-47
2024/03/05 04:39:26;;;;;;;43.00;20.85;;;;;;;5.43;100.00;68988.97;5069082;28;20127;-48
2024/03/05 04:41:54;;;;;;;44.83;22.27;;;;;;;5.39;100.00;68986.91;5068785;28;20071;-46
2024/03/05 04:44:24;;;;;;;43.75;22.63;;;;;;;5.45;100.00;68996.47;5072104;28;20048;-50
2024/03/05 04:46:52;;;;;;;45.55;22.17;;;;;;;5.45;100.00;68998.47;5072087;28;20049;-54
2024/03/05 04:49:20;;;;;;;45.88;21.92;;;;;;;5.43;100.00;68994.16;5071100;28;20071;-46
2024/03/05 04:51:49;;;;;;;42.22;20.55;;;;;;;5.50;100.00;69002.28;5071482;28;20049;-53
2024/03/05 04:54:20;;;;;;;45.67;21.30;;;;;;;5.46;100.00;68995.03;5069072;28;20044;-46
2024/03/05 04:56:48;;;;;;;40.30;20.88;;;;;;;5.50;100.00;69006.88;5068299;28;20041;-47
2024/03/05 04:59:17;;;;;;;45.33;21.65;;;;;;;5.51;100.00;69006.03;5067926;28;20388;-47
2024/03/05 05:01:45;;;;;;;37.53;20.23;;;;;;;5.50;100.00;69002.28;5070703;28;20048;-48
2024/03/05 05:04:13;;;;;;;40.35;20.13;;;;;;;5.50;100.00;68999.69;5070341;28;20044;-46
2024/03/05 05:06:42;;;;;;;41.88;21.02;;;;;;;5.51;100.00;69000.84;5071808;28;20049;-47
2024/03/05 05:09:10;;;;;;;42.88;21.08;;;;;;;5.48;100.00;68997.38;5068712;28;20048;-48
2024/03/05 05:11:40;;;;;;;39.70;19.05;;;;;;;5.46;100.00;68995.03;5067346;28;20499;-52
2024/03/05 05:14:10;;;;;;;44.78;21.35;;;;;;;5.44;100.00;68997.31;5067083;28;20040;-47
2024/03/05 05:16:39;;;;;;;43.97;21.38;;;;;;;5.43;100.00;68994.16;5069045;28;20072;-47
2024/03/05 05:19:07;;;;;;;38.40;20.17;;;;;;;5.41;100.00;68992.41;5075153;28;20075;-49
2024/03/05 05:21:36;;;;;;;40.33;19.85;;;;;;;5.41;100.00;68989.22;5074102;28;20047;-49
2024/03/05 05:24:05;;;;;;;36.58;19.98;;;;;;;5.42;100.00;68993.53;5071634;28;20403;-48
2024/03/05 05:26:33;;;;;;;41.58;20.65;;;;;;;5.44;100.00;68997.31;5073962;28;20136;-47
2024/03/05 05:29:03;;;;;;;40.28;20.70;;;;;;;5.44;100.00;68995.31;5075209;28;20040;-48
2024/03/05 05:31:31;;;;;;;36.85;18.90;;;;;;;5.44;100.00;68995.31;5075167;28;20384;-48
2024/03/05 05:34:00;;;;;;;41.67;20.67;;;;;;;5.43;100.00;68991.56;5075404;28;20048;-47
2024/03/05 05:36:28;;;;;;;43.80;22.08;;;;;;;5.44;100.00;68992.72;5075274;28;20105;-48
2024/03/05 05:38:59;;;;;;;36.95;19.27;;;;;;;5.50;100.00;69001.69;5075055;28;20075;-48
2024/03/05 05:41:28;;;;;;;40.35;20.35;;;;;;;5.47;100.00;68996.19;5074952;28;20056;-47
2024/03/05 05:43:58;;;;;;;37.53;19.10;;;;;;;5.46;100.00;68997.63;5075041;28;20048;-46
2024/03/05 05:46:28;;;;;;;42.22;18.77;;;;;;;5.51;100.00;69000.28;5074919;28;20123;-48
2024/03/05 05:48:56;;;;;;;38.35;20.42;;;;;;;5.46;100.00;68995.03;5074767;28;20045;-48
2024/03/05 05:51:31;;;;;;;37.63;19.15;;;;;;;5.48;100.00;68996.78;5074735;28;20033;-47
2024/03/05 05:54:00;;;;;;;40.30;19.95;;;;;;;5.46;100.00;68989.84;5074664;28;20055;-47
2024/03/05 05:56:29;;;;;;;44.22;19.95;;;;;;;5.47;100.00;68996.19;5071178;28;20053;-49
2024/03/05 05:58:58;;;;;;;38.45;19.02;;;;;;;5.45;100.00;68996.47;5070732;28;20093;-51
2024/03/05 06:01:28;;;;;;;41.35;19.77;;;;;;;5.53;100.00;69008.34;5073509;28;20044;-49
2024/03/05 06:03:56;;;;;;;42.03;19.63;;;;;;;5.51;100.00;69003.44;5074425;28;20045;-46
2024/03/05 06:06:25;;;;;;;39.45;20.30;;;;;;;5.50;100.00;69002.28;5074331;28;20123;-46
2024/03/05 06:08:53;;;;;;;41.33;20.40;;;;;;;5.50;100.00;69004.28;5074515;28;20041;-47
2024/03/05 06:11:23;;;;;;;42.13;19.55;;;;;;;5.48;100.00;68996.78;5074582;28;20484;-47
2024/03/05 06:13:51;;;;;;;41.47;21.02;;;;;;;5.47;100.00;68998.78;5072305;28;20040;-51
2024/03/05 06:16:20;;;;;;;41.20;19.85;;;;;;;5.47;100.00;68998.78;5071005;28;20067;-48
2024/03/05 06:18:49;;;;;;;36.50;18.75;;;;;;;5.48;100.00;68997.38;5073311;28;20077;-47
2024/03/05 06:21:17;;;;;;;44.97;20.67;;;;;;;5.48;100.00;68996.78;5074318;28;20044;-50
2024/03/05 06:23:46;;;;;;;39.88;21.23;;;;;;;5.49;100.00;68997.94;5073920;28;20052;-55
2024/03/05 06:26:14;;;;;;;41.58;20.63;;;;;;;5.48;100.00;68999.97;5074116;28;20056;-53
2024/03/05 06:28:43;;;;;;;46.50;19.90;;;;;;;5.48;100.00;68997.38;5073762;28;20048;-52
2024/03/05 06:31:11;;;;;;;37.35;21.23;;;;;;;5.48;100.00;68997.38;5071919;28;20056;-53
2024/03/05 06:33:40;;;;;;;43.20;20.67;;;;;;;5.48;100.00;68999.38;5070855;28;20048;-49
2024/03/05 06:36:11;;;;;;;43.67;21.15;;;;;;;5.50;100.00;68999.69;5073406;28;20036;-48
2024/03/05 06:38:39;;;;;;;38.45;19.73;;;;;;;5.54;100.00;69004.34;5071222;28;20071;-50
2024/03/05 06:41:11;;;;;;;39.50;20.17;;;;;;;5.53;100.00;69005.75;5071658;28;20037;-51
2024/03/05 06:43:41;;;;;;;39.78;20.33;;;;;;;5.58;100.00;69013.59;5069820;28;20056;-52
2024/03/05 06:46:13;;;;;;;44.00;20.88;;;;;;;5.55;100.00;69004.94;5070476;28;20495;-49
2024/03/05 06:48:47;;;;;;;45.27;21.63;;;;;;;5.56;100.00;69008.66;5072888;28;20040;-53
2024/03/05 06:51:26;;;;;;;40.25;21.05;;;;;;;5.55;100.00;69012.69;5070510;28;20102;-51
2024/03/05 06:56:41;;;;;;;42.97;22.05;;;;;;;5.59;100.00;69012.75;5068296;28;20056;-48
2024/03/05 06:59:10;;;;;;;45.40;21.65;;;;;;;5.59;100.00;69010.16;5068087;28;20053;-46
2024/03/05 07:01:38;;;;;;;44.63;21.42;;;;;;;5.66;100.00;69020.28;5070519;28;20053;-51
2024/03/05 07:04:08;;;;;;;42.90;20.27;;;;;;;5.68;100.00;69016.84;5071716;28;20496;-47
2024/03/05 07:06:38;;;;;;;45.53;23.67;;;;;;;5.74;100.00;69027.00;5072260;28;20052;-47
2024/03/05 07:09:06;;;;;;;49.05;22.85;;;;;;;5.75;100.00;69032.75;5069281;28;20567;-47
2024/03/05 07:11:34;;;;;;;49.05;23.15;;;;;;;5.74;100.00;69026.44;5070304;28;20124;-48
2024/03/05 07:14:02;;;;;;;44.83;22.45;;;;;;;5.73;100.00;69028.44;5073028;28;20062;-47
2024/03/05 07:16:32;;;;;;;47.40;23.35;;;;;;;5.76;100.00;69028.75;5072796;28;20070;-49
2024/03/05 07:19:01;;;;;;;47.65;22.33;;;;;;;5.80;100.00;69033.41;5072813;28;20569;-48
2024/03/05 07:21:30;;;;;;;50.83;23.67;;;;;;;5.81;100.00;69031.97;5071560;28;20495;-49
2024/03/05 07:24:00;;;;;;;45.08;22.63;;;;;;;5.81;100.00;69037.16;5069136;28;20049;-47
2024/03/05 07:26:30;;;;;;;50.40;24.10;;;;;;;5.82;100.00;69035.72;5070326;28;20472;-50
2024/03/05 07:28:58;;;;;;;45.45;23.20;;;;;;;5.84;100.00;69038.06;5073002;28;20123;-49
2024/03/05 07:31:28;;;;;;;49.47;24.77;;;;;;;5.84;100.00;69040.63;5072943;28;20053;-48
2024/03/05 07:33:58;;;;;;;50.60;23.98;;;;;;;5.86;100.00;69042.38;5072952;28;20089;-47
2024/03/05 07:36:29;;;;;;;53.30;25.00;;;;;;;5.89;100.00;69046.47;5072973;28;20044;-48
2024/03/05 07:38:57;;;;;;;52.95;25.00;;;;;;;5.91;100.00;69048.78;5072249;28;20041;-49
2024/03/05 07:41:27;;;;;;;49.30;23.33;;;;;;;5.95;100.00;69052.28;5072752;28;20403;-49
2024/03/05 07:44:03;;;;;;;50.30;22.83;;;;;;;5.97;100.00;69052.00;5068982;28;20055;-49
2024/03/05 07:46:33;;;;;;;47.30;22.88;;;;;;;6.00;100.00;69055.50;5069344;28;20093;-48
2024/03/05 07:49:02;;;;;;;47.38;21.90;;;;;;;6.03;100.00;69059.00;5072532;28;20476;-50
2024/03/05 07:51:30;;;;;;;48.20;24.05;;;;;;;6.06;100.00;69067.66;5072579;28;20052;-49
2024/03/05 07:54:12;;;;;;;47.70;23.73;;;;;;;6.09;100.00;69068.56;5070371;28;20456;-46
2024/03/05 07:56:43;;;;;;;49.92;24.27;;;;;;;6.15;100.00;69074.97;5067204;28;20051;-52
2024/03/05 07:59:12;;;;;;;51.53;23.63;;;;;;;6.14;100.00;69074.38;5071446;28;20124;-51
2024/03/05 08:01:42;;;;;;;55.05;24.52;;;;;;;6.14;100.00;69071.78;5072587;28;20045;-47
2024/03/05 08:04:10;;;;;;;53.60;25.05;;;;;;;6.20;100.00;69081.38;5072280;28;20068;-49
2024/03/05 08:06:39;;;;;;;48.47;23.42;;;;;;;6.21;100.00;69082.53;5070994;28;20408;-50
2024/03/05 08:09:07;;;;;;;50.67;25.05;;;;;;;6.25;100.00;69084.00;5068487;28;20066;-49
2024/03/05 08:11:39;;;;;;;56.17;25.42;;;;;;;6.34;100.00;69099.66;5071197;28;20052;-49
2024/03/05 08:14:09;;;;;;;49.95;23.83;;;;;;;6.38;100.00;69101.72;5066420;28;20041;-52
2024/03/05 08:16:38;;;;;;;58.92;26.15;;;;;;;6.40;100.00;69100.88;5069366;28;20557;-49
2024/03/05 08:19:07;;;;;;;52.28;24.90;;;;;;;6.42;100.00;69100.59;5070242;28;20049;-51
2024/03/05 08:21:36;;;;;;;51.75;23.98;;;;;;;6.47;100.00;69108.44;5069248;28;20056;-50
2024/03/05 08:24:06;;;;;;;55.03;25.45;;;;;;;6.50;100.00;69115.09;5067248;28;20044;-51
2024/03/05 08:26:37;;;;;;;54.60;26.13;;;;;;;6.54;100.00;69119.75;5071856;28;20491;-46
2024/03/05 08:29:05;;;;;;;54.78;26.92;;;;;;;6.58;100.00;69119.22;5070833;28;20044;-48
2024/03/05 08:31:35;;;;;;;57.90;26.55;;;;;;;6.65;100.00;69131.97;5068910;28;20135;-48
2024/03/05 08:34:04;;;;;;;55.63;25.13;;;;;;;6.67;100.00;69133.72;5068369;28;20036;-49
2024/03/05 08:36:36;;;;;;;55.08;26.30;;;;;;;6.68;100.00;69130.28;5068948;28;20044;-49
2024/03/05 08:39:15;;;;;;;54.88;23.92;;;;;;;6.75;100.00;69143.59;5071753;28;20071;-48
2024/03/05 08:41:46;;;;;;;54.22;26.90;;;;;;;6.75;100.00;69141.00;5072170;28;20060;-46
2024/03/05 08:44:16;;;;;;;59.15;25.77;;;;;;;6.81;100.00;69146.84;5072203;28;20048;-47
2024/03/05 08:46:46;;;;;;;58.20;27.15;;;;;;;6.85;100.00;69152.06;5072164;28;20066;-46
2024/03/05 08:49:14;;;;;;;59.67;27.10;;;;;;;6.89;100.00;69156.13;5071989;28;20403;-47
2024/03/05 08:51:42;;;;;;;59.90;28.80;;;;;;;6.91;100.00;69161.06;5071483;28;20222;-47
2024/03/05 08:54:10;;;;;;;55.20;26.10;;;;;;;6.98;100.00;69168.63;5072891;28;20449;-46
2024/03/05 08:56:41;;;;;;;62.28;27.88;;;;;;;7.02;100.00;69173.28;5075497;28;20498;-48
2024/03/05 08:59:09;;;;;;;62.00;27.15;;;;;;;7.07;100.00;69179.09;5075600;28;20077;-49
2024/03/05 09:01:40;;;;;;;56.92;26.58;;;;;;;7.13;100.00;69182.91;5075758;28;20064;-48
2024/03/05 09:04:10;;;;;;;59.08;28.67;;;;;;;7.17;100.00;69190.75;5072081;28;20145;-47
2024/03/05 09:06:38;;;;;;;63.38;28.55;;;;;;;7.20;100.00;69191.63;5072456;28;20095;-51
2024/03/05 09:09:11;;;;;;;69.50;31.85;;;;;;;7.20;100.00;69188.44;5071887;28;20075;-48
2024/03/05 09:11:39;;;;;;;66.53;30.80;;;;;;;7.24;100.00;69196.28;5074030;28;20500;-48
2024/03/05 09:14:08;;;;;;;70.22;32.00;;;;;;;7.30;100.00;69199.53;5075315;28;20036;-52
2024/03/05 09:16:37;;;;;;;68.68;30.40;;;;;;;7.34;100.00;69209.94;5075382;28;20078;-50
2024/03/05 09:19:06;;;;;;;69.45;31.73;;;;;;;7.45;100.00;69216.97;5075339;28;20041;-47
2024/03/05 09:21:36;;;;;;;64.93;31.55;;;;;;;7.45;100.00;69222.75;5075420;28;20417;-50
2024/03/05 09:24:06;;;;;;;74.50;32.13;;;;;;;7.47;100.00;69224.50;5075060;28;20044;-47
2024/03/05 09:26:35;;;;;;;72.05;33.17;;;;;;;7.48;100.00;69227.69;5072761;28;20056;-49
2024/03/05 09:29:03;;;;;;;73.47;33.20;;;;;;;7.48;100.00;69228.25;5068896;28;20559;-52
2024/03/05 09:31:32;;;;;;;71.53;33.65;;;;;;;7.51;100.00;69231.75;5075250;28;20058;-49
2024/03/05 09:34:01;;;;;;;68.35;31.23;;;;;;;7.51;100.00;69226.56;5073481;28;20081;-49
2024/03/05 09:36:29;;;;;;;71.50;32.38;;;;;;;7.53;100.00;69228.88;5071949;28;20472;-47
2024/03/05 09:39:07;;;;;;;65.87;32.30;;;;;;;7.60;100.00;69236.47;5073915;28;20057;-51
2024/03/05 09:41:41;;;;;;;68.70;33.67;;;;;;;7.62;100.00;69233.59;5074910;28;20055;-51
2024/03/05 09:44:10;;;;;;;71.53;32.65;;;;;;;7.69;100.00;69246.94;5072511;28;20499;-51
2024/03/05 09:46:39;;;;;;;61.60;30.75;;;;;;;7.68;100.00;69245.19;5069245;28;20052;-49
2024/03/05 09:49:10;;;;;;;66.53;33.35;;;;;;;7.71;100.00;69251.84;5073869;28;20595;-49
2024/03/05 09:51:50;;;;;;;61.40;29.70;;;;;;;7.74;100.00;69252.16;5070384;28;20053;-51
2024/03/05 09:54:20;;;;;;;65.63;32.45;;;;;;;7.83;100.00;69262.09;5071183;28;20040;-49
2024/03/05 09:56:53;;;;;;;60.88;31.63;;;;;;;7.85;100.00;69267.56;5073144;28;20052;-50
2024/03/05 09:59:22;;;;;;;60.47;31.92;;;;;;;7.91;100.00;69274.00;5070630;28;20133;-49
2024/03/05 10:01:50;;;;;;;66.22;31.58;;;;;;;7.94;100.00;69278.06;5072996;28;20480;-52
2024/03/05 10:04:19;;;;;;;60.97;30.98;;;;;;;7.99;100.00;69282.72;5070932;28;20048;-51
2024/03/05 10:06:48;;;;;;;53.70;30.00;;;;;;;8.00;100.00;69283.88;5070926;28;20540;-50
2024/03/05 10:09:17;;;;;;;61.08;30.98;;;;;;;8.05;100.00;69287.13;5106857;28;20535;-50
2024/03/05 10:11:50;;;;;;;60.88;29.85;;;;;;;8.11;100.00;69292.09;5072678;28;20076;-46
2024/03/05 10:14:18;;;;;;;58.15;29.70;;;;;;;8.19;100.00;69306.00;5070929;28;20420;-46
2024/03/05 10:16:48;;;;;;;59.15;30.13;;;;;;;8.22;100.00;69309.53;5070862;28;20053;-48
2024/03/05 10:19:18;;;;;;;59.72;31.23;;;;;;;8.26;100.00;69311.59;5070609;28;20044;-48
2024/03/05 10:21:47;;;;;;;57.90;29.58;;;;;;;8.31;100.00;69316.25;5070391;28;20052;-49
2024/03/05 10:24:27;;;;;;;58.20;31.23;;;;;;;8.35;100.00;69318.31;5074210;28;20049;-48
2024/03/05 10:26:56;;;;;;;52.83;28.02;;;;;;;8.39;100.00;69323.53;5074177;28;20471;-47
2024/03/05 10:29:34;;;;;;;54.75;29.00;;;;;;;8.47;100.00;69334.91;5072594;28;20052;-46
2024/03/05 10:32:05;;;;;;;58.20;29.55;;;;;;;8.52;100.00;69343.34;5070158;28;20124;-47
2024/03/05 10:34:34;;;;;;;57.80;29.60;;;;;;;8.60;100.00;69350.06;5070610;28;20048;-57
2024/03/05 10:37:05;;;;;;;51.95;28.65;;;;;;;8.64;100.00;69351.53;5070771;28;20044;-55
2024/03/05 10:39:36;;;;;;;55.40;29.73;;;;;;;8.65;100.00;69357.31;5072943;28;20048;-55
2024/03/05 10:42:06;;;;;;;54.03;29.00;;;;;;;8.71;100.00;69359.09;5073317;28;20053;-55
2024/03/05 10:44:36;;;;;;;53.35;30.92;;;;;;;8.73;100.00;69366.66;5073477;28;20059;-56
2024/03/05 10:47:06;;;;;;;48.17;27.50;;;;;;;8.75;100.00;69369.56;5072518;28;20080;-56
2024/03/05 10:49:36;;;;;;;52.78;29.50;;;;;;;8.76;100.00;69367.53;5073676;28;20037;-56
2024/03/05 10:52:08;;;;;;;51.72;28.75;;;;;;;8.75;100.00;69368.97;5073712;28;20071;-56
2024/03/05 10:54:38;;;;;;;58.20;31.27;;;;;;;8.81;100.00;69370.75;5073569;28;20503;-55
2024/03/05 10:57:08;;;;;;;57.70;30.70;;;;;;;8.75;100.00;69368.97;5072516;28;20040;-56
2024/03/05 10:59:41;;;;;;;;;;;;;;;8.78;100.00;69369.84;5070461;28;20051;-56
2024/03/05 11:02:13;;;;;;;58.83;30.08;;;;;;;8.80;100.00;69372.78;5072364;28;19927;-55
2024/03/05 11:04:44;;;;;;;49.85;28.98;;;;;;;8.84;100.00;69373.69;5070440;28;20055;-57
2024/03/05 11:07:13;;;;;;;53.58;28.77;;;;;;;8.89;100.00;69379.50;5071006;28;20047;-56
2024/03/05 11:09:44;;;;;;;50.85;28.17;;;;;;;8.92;100.00;69386.19;5073542;28;20055;-56
2024/03/05 11:12:19;;;;;;;45.55;26.38;;;;;;;8.89;100.00;69376.88;5071860;28;20412;-57
2024/03/05 11:14:49;;;;;;;44.40;26.15;;;;;;;8.90;100.00;69381.25;5072223;28;20036;-56
2024/03/05 11:17:17;;;;;;;46.83;26.48;;;;;;;8.89;100.00;69385.28;5070476;28;20044;-55
2024/03/05 11:19:46;;;;;;;36.70;22.05;;;;;;;8.95;100.00;69392.28;5070707;28;20040;-57
2024/03/05 11:22:23;;;;;;;36.72;22.95;;;;;;;8.99;100.00;69391.16;5073108;28;20102;-55
2024/03/05 11:24:55;;;;;;;33.20;21.20;;;;;;;9.01;100.00;69398.69;5072990;28;20086;-56
2024/03/05 11:27:25;;;;;;;29.98;19.23;;;;;;;9.06;100.00;69407.13;5073015;28;20048;-57
2024/03/05 11:30:08;;;;;;;30.88;18.50;;;;;;;9.09;100.00;69407.44;5073106;28;20128;-56